• Join FlightAware (Why Join?)
  • Login
  • US Flag 
04:40PM EST


 

Airport Tracker/Info


-or-


 

Live Flight TrackerFlight Track Log ✈ UAL4295 ✈ 02-May-2013 ✈ KIAH - KCMH

Flight Track Log - Related Links

Times and Time Zones

All times are in EDT time to prevent confusion due to time zone crossing. See the UAL4295 flight status page for this flight to view local times or setup timezone preferences in your user account.

Time Position Orientation Groundspeed Altitude Reporting Facility
EDT Latitude Longitude Course Direction KTS MPH feet Rate Location/Type
02:47PM 29.9811 -95.3483 41° Northeast 190 219 1,000  Level Houston Center
02:48PM 30.0375 -95.3464 North 224 258 2,200 1,320 Climbing Houston Center
02:49PM 30.1017 -95.3364 North 240 276 3,800 1,740 Climbing Houston Center
02:50PM 30.3983 -95.1675 23° Northeast  Level FlightAware Approximate
02:50PM 30.1639 -95.3044 24° Northeast 246 283 5,800  Level Houston Center
02:51PM 30.4974 -95.1116 27° Northeast  Level FlightAware Approximate
02:51PM 30.2281 -95.2725 23° Northeast 253 291 7,600  Level Houston Center
02:52PM 30.5942 -95.0558 41° Northeast  Level FlightAware Approximate
02:52PM 30.3058 -95.2344 23° Northeast 264 304 9,700  Level Houston Center
02:53PM 30.3797 -95.1978 23° Northeast 285 328 10,600 780 Climbing Houston Center
02:54PM 30.4667 -95.1514 25° Northeast 325 374 11,400 780 Climbing Houston Center
02:55PM 30.5517 -95.0992 28° Northeast 343 395 12,300 900 Climbing Houston Center
02:56PM 30.6394 -95.0444 28° Northeast 356 410 13,300 1,020 Climbing Houston Center
02:57PM 30.7447 -94.9789 28° Northeast 357 411 14,500 1,020 Climbing Houston Center
02:58PM 30.8328 -94.9233 28° Northeast 361 415 15,500 960 Climbing Houston Center
02:59PM 30.9225 -94.8681 28° Northeast 364 419 16,500 840 Climbing Houston Center
03:00PM 31.0122 -94.8114 28° Northeast 368 423 17,300 720 Climbing Houston Center
03:01PM 31.1053 -94.7533 28° Northeast 378 435 18,000 720 Climbing Houston Center
03:02PM 31.1350 -94.7367 26° Northeast 371 427 18,300 840 Climbing Fort Worth Center
03:03PM 31.2233 -94.6733 32° Northeast 365 420 19,100 840 Climbing Fort Worth Center
03:04PM 31.3222 -94.6094 29° Northeast 377 434 20,000 840 Climbing Fort Worth Center
03:05PM 31.4167 -94.5408 32° Northeast 383 441 20,800 840 Climbing Fort Worth Center
03:06PM 31.5131 -94.4747 30° Northeast 390 449 21,700 900 Climbing Fort Worth Center
03:07PM 31.6097 -94.4081 30° Northeast 395 455 22,600 900 Climbing Fort Worth Center
03:08PM 31.7061 -94.3414 30° Northeast 395 455 23,500 780 Climbing Fort Worth Center
03:09PM 31.8006 -94.2725 32° Northeast 400 460 24,200 660 Climbing Fort Worth Center
03:10PM 31.8925 -94.1908 37° Northeast 400 460 24,900 360 Climbing Fort Worth Center
03:11PM 31.9819 -94.1022 40° Northeast 405 466 25,000  Climbing Fort Worth Center
03:12PM 32.0758 -94.0153 38° Northeast 418 481 25,000  Level Fort Worth Center
03:13PM 32.1711 -93.9211 40° Northeast 429 494 25,000  Level Fort Worth Center
03:14PM 32.2647 -93.8267 40° Northeast 436 502 25,000  Level Fort Worth Center
03:15PM 32.3619 -93.7317 40° Northeast 449 517 25,000  Level Fort Worth Center
03:16PM 32.4614 -93.6342 40° Northeast 449 517 25,000  Level Fort Worth Center
03:17PM 32.5567 -93.5389 40° Northeast 449 517 25,000  Level Fort Worth Center
03:18PM 32.6661 -93.4306 40° Northeast 455 524 25,000  Level Fort Worth Center
03:19PM 32.7653 -93.3347 39° Northeast 455 524 25,000  Level Fort Worth Center
03:20PM 32.8622 -93.2389 40° Northeast 455 524 25,000  Level Fort Worth Center
03:21PM 32.9592 -93.1428 40° Northeast 455 524 25,000  Level Fort Worth Center
03:22PM 33.0600 -93.0414 40° Northeast 460 529 25,000  Level Fort Worth Center
03:23PM 33.1569 -92.9472 39° Northeast 455 524 25,000  Level Fort Worth Center
03:24PM 33.3292 -92.7739 40° Northeast 477 549 25,000  Level Memphis Center
03:25PM 33.4269 -92.6769 40° Northeast 471 542 25,000  Level Memphis Center
03:26PM 33.5247 -92.5775 40° Northeast 465 535 25,000  Level Memphis Center
03:27PM 33.6225 -92.4778 40° Northeast 458 527 25,000  Level Memphis Center
03:28PM 33.7203 -92.3800 40° Northeast 458 527 25,000  Level Memphis Center
03:29PM 33.8197 -92.2825 39° Northeast 464 534 25,000  Level Memphis Center
03:30PM 33.9194 -92.1819 40° Northeast 464 534 25,000  Level Memphis Center
03:31PM 34.0147 -92.0814 41° Northeast 464 534 25,000  Level Memphis Center
03:32PM 34.1228 -91.9631 42° Northeast 464 534 25,000  Level Memphis Center
03:33PM 34.2200 -91.8642 40° Northeast 464 534 25,000  Level Memphis Center
03:34PM 34.3089 -91.7678 42° Northeast 464 534 25,000  Level Memphis Center
03:35PM 34.4081 -91.6686 40° Northeast 458 527 25,000  Level Memphis Center
03:36PM 34.5092 -91.5669 40° Northeast 464 534 25,000  Level Memphis Center
03:37PM 34.6039 -91.4622 42° Northeast 465 535 25,000  Level Memphis Center
03:38PM 34.7072 -91.3575 40° Northeast 465 535 25,000  Level Memphis Center
03:39PM 34.8122 -91.2450 41° Northeast 465 535 25,000  Level Memphis Center
03:40PM 34.9111 -91.1422 40° Northeast 465 535 25,000  Level Memphis Center
03:41PM 35.0117 -91.0367 41° Northeast 465 535 25,000  Level Memphis Center
03:42PM 35.1083 -90.9333 41° Northeast 465 535 25,000  Level Memphis Center
03:43PM 35.2067 -90.8272 41° Northeast 465 535 25,000  Level Memphis Center
03:44PM 35.3053 -90.7233 41° Northeast 465 535 25,000  Level Memphis Center
03:45PM 35.4033 -90.6169 41° Northeast 465 535 25,000  Level Memphis Center
03:46PM 35.4911 -90.5228 41° Northeast 465 535 25,000  Level Memphis Center
03:47PM 35.5872 -90.4183 41° Northeast 465 535 25,000  Level Memphis Center
03:48PM 35.6853 -90.3111 42° Northeast 459 528 25,000  Level Memphis Center
03:49PM 35.7872 -90.1958 43° Northeast 459 528 25,000  Level Memphis Center
03:50PM 35.8853 -90.0906 41° Northeast 459 528 25,000  Level Memphis Center
03:51PM 35.9808 -89.9825 42° Northeast 465 535 25,000  Level Memphis Center
03:52PM 36.0806 -89.8742 41° Northeast 465 535 25,000  Level Memphis Center
03:53PM 36.1781 -89.7681 41° Northeast 465 535 25,000  Level Memphis Center
03:54PM 36.2733 -89.6619 42° Northeast 465 535 25,000  Level Memphis Center
03:55PM 36.3728 -89.5528 41° Northeast 465 535 25,000  Level Memphis Center
03:56PM 36.4617 -89.4592 40° Northeast 465 535 25,000  Level Memphis Center
03:57PM 36.5608 -89.3442 43° Northeast 470 541 25,000  Level Memphis Center
03:58PM 36.6581 -89.2344 42° Northeast 470 541 25,000  Level Memphis Center
03:59PM 36.7528 -89.1269 42° Northeast 463 533 25,000  Level Memphis Center
04:00PM 36.8497 -89.0192 42° Northeast 463 533 25,000  Level Memphis Center
04:01PM 36.9464 -88.9083 42° Northeast 463 533 25,000  Level Memphis Center
04:02PM 37.0408 -88.8003 42° Northeast 463 533 25,000  Level Memphis Center
04:03PM 37.1394 -88.6917 41° Northeast 463 533 25,000  Level Memphis Center
04:04PM 37.2336 -88.5803 43° Northeast 463 533 25,000  Level Memphis Center
04:05PM 37.3300 -88.4711 42° Northeast 463 533 25,000  Level Memphis Center
04:07PM 37.4539 -88.3178 44° Northeast 468 539 25,000  Level Indianapolis Center
04:08PM 37.5506 -88.2050 43° Northeast 469 540 25,000  Level Indianapolis Center
04:09PM 37.6475 -88.0911 43° Northeast 470 541 25,000  Level Indianapolis Center
04:10PM 37.7447 -87.9786 42° Northeast 470 541 25,000  Level Indianapolis Center
04:11PM 37.8428 -87.8614 43° Northeast 471 542 25,000  Level Indianapolis Center
04:12PM 37.9372 -87.7458 44° Northeast 471 542 25,000  Level Indianapolis Center
04:13PM 38.0044 -87.6039 59° Northeast 467 537 25,000  Level Indianapolis Center
04:14PM 38.0697 -87.4242 65° Northeast 467 537 25,000  Level Indianapolis Center
04:15PM 38.1242 -87.2742 65° Northeast 468 539 25,000  Level Indianapolis Center
04:16PM 38.1781 -87.1247 65° Northeast 471 542 25,000  Level Indianapolis Center
04:17PM 38.2306 -86.9767 66° East 473 544 25,000  Level Indianapolis Center
04:18PM 38.2947 -86.7989 65° Northeast 470 541 25,000  Level Indianapolis Center
04:19PM 38.3483 -86.6478 66° East 468 539 25,000  Level Indianapolis Center
04:20PM 38.4028 -86.4981 65° Northeast 466 536 25,000  Level Indianapolis Center
04:21PM 38.4558 -86.3442 66° East 470 541 25,000  Level Indianapolis Center
04:22PM 38.5094 -86.1925 66° East 469 540 25,000  Level Indianapolis Center
04:23PM 38.5631 -86.0386 66° East 471 542 25,000  Level Indianapolis Center
04:24PM 38.6267 -85.8544 66° East 471 542 25,000  Level Indianapolis Center
04:25PM 38.6744 -85.7161 66° East 472 543 25,000  Level Indianapolis Center
04:26PM 38.7267 -85.5622 66° East 474 545 25,000  Level Indianapolis Center
04:27PM 38.7900 -85.3792 66° East 473 544 25,000 -180 Level Indianapolis Center
04:28PM 38.8417 -85.2267 66° East 470 541 24,700 -540 Descending Indianapolis Center
04:29PM 38.8917 -85.0775 67° East 460 529 23,900 -780 Descending Indianapolis Center
04:31PM 38.9422 -84.9269 67° East 462 532 23,100 -840 Descending Indianapolis Center
04:32PM 38.9917 -84.7792 67° East 450 518 22,200 -960 Descending Indianapolis Center
04:33PM 39.0619 -84.6197 60° Northeast 438 504 21,200 -960 Descending Indianapolis Center
04:34PM 39.1331 -84.4925 54° Northeast 435 501 20,300 -840 Descending Indianapolis Center
04:35PM 39.2033 -84.3647 55° Northeast 433 498 19,500 -660 Descending Indianapolis Center
04:36PM 39.2722 -84.2397 55° Northeast 426 490 19,000 -300 Descending Indianapolis Center
04:37PM 39.3292 -84.1075 61° Northeast 422 486 18,900  Descending Indianapolis Center
04:38PM 39.3819 -83.9703 64° Northeast 423 487 19,000 -1,020 Climbing Indianapolis Center
04:39PM 39.4339 -83.8328 64° Northeast 423 487 16,900 -1,620 Descending Indianapolis Center
04:41PM 39.5118 -83.5980 67° East  Level FlightAware Approximate
04:44PM 39.6897 -83.3097 115° Southeast 311 358 9,200  Level Indianapolis Center
04:45PM 39.7678 -83.3067 287° West 304 350 7,900 -1,560 Descending Indianapolis Center
04:46PM 39.7655 -83.1242 52° Northeast  Level FlightAware Approximate
04:46PM 39.8436 -83.2697 21° North 274 315 6,400  Level Indianapolis Center
04:46PM 39.8567 -83.2569 37° Northeast 283 326 6,100 -1,140 Descending Indianapolis Center
04:47PM 39.8897 -83.2097 48° Northeast 257 296 5,400 -1,080 Descending Indianapolis Center
04:48PM 39.9980 -82.8920 96° East  Level Estimated
04:49PM 39.9980 -82.8920 115° Southeast  Level Estimated
04:53PM 39.9980 -82.8920 287° West  Level Estimated